sensor_id;sensor_type;location;lat;lon;timestamp;pressure;altitude;pressure_sealevel;temperature;humidity
59315;BME280;46521;50.160;20.802;2023-02-11T00:15:09;101352.52;;;-0.09;67.89
59315;BME280;46521;50.160;20.802;2023-02-11T00:25:11;101344.52;;;-0.28;67.70
59315;BME280;46521;50.160;20.802;2023-02-11T00:35:12;101319.51;;;-0.55;67.71
59315;BME280;46521;50.160;20.802;2023-02-11T00:45:14;101316.31;;;-0.63;67.85
59315;BME280;46521;50.160;20.802;2023-02-11T00:55:16;101324.00;;;-0.60;68.24
59315;BME280;46521;50.160;20.802;2023-02-11T01:05:18;101301.42;;;-0.58;67.86
59315;BME280;46521;50.160;20.802;2023-02-11T01:15:21;101293.85;;;-0.64;68.57
59315;BME280;46521;50.160;20.802;2023-02-11T01:25:22;101282.90;;;-0.72;68.02
59315;BME280;46521;50.160;20.802;2023-02-11T01:35:24;101270.13;;;-0.78;68.51
59315;BME280;46521;50.160;20.802;2023-02-11T01:55:42;101236.45;;;-1.05;68.14
59315;BME280;46521;50.160;20.802;2023-02-11T02:06:06;101218.97;;;-1.25;68.45
59315;BME280;46521;50.160;20.802;2023-02-11T02:16:13;101197.19;;;-1.46;68.65
59315;BME280;46521;50.160;20.802;2023-02-11T02:26:37;101188.05;;;-1.56;68.59
59315;BME280;46521;50.160;20.802;2023-02-11T02:37:03;101193.44;;;-1.62;68.83
59315;BME280;46521;50.160;20.802;2023-02-11T02:47:09;101191.53;;;-1.57;69.07
59315;BME280;46521;50.160;20.802;2023-02-11T03:07:43;101154.47;;;-1.61;69.42
59315;BME280;46521;50.160;20.802;2023-02-11T03:17:50;101154.73;;;-1.69;69.06
59315;BME280;46521;50.160;20.802;2023-02-11T03:38:15;101076.19;;;-1.72;69.06
59315;BME280;46521;50.160;20.802;2023-02-11T03:48:22;101083.75;;;-1.66;69.65
59315;BME280;46521;50.160;20.802;2023-02-11T03:58:25;101058.38;;;-1.58;69.07
59315;BME280;46521;50.160;20.802;2023-02-11T04:08:27;101035.08;;;-1.59;69.49
59315;BME280;46521;50.160;20.802;2023-02-11T04:18:28;101008.21;;;-1.58;69.45
59315;BME280;46521;50.160;20.802;2023-02-11T04:28:30;100995.30;;;-1.60;69.28
59315;BME280;46521;50.160;20.802;2023-02-11T04:38:31;100972.98;;;-1.64;69.77
59315;BME280;46521;50.160;20.802;2023-02-11T04:48:33;100979.13;;;-1.67;69.91
59315;BME280;46521;50.160;20.802;2023-02-11T04:58:35;100992.91;;;-1.65;69.94
59315;BME280;46521;50.160;20.802;2023-02-11T05:08:36;101017.70;;;-1.57;70.00
59315;BME280;46521;50.160;20.802;2023-02-11T05:18:39;101023.66;;;-1.55;70.08
59315;BME280;46521;50.160;20.802;2023-02-11T05:28:42;100992.36;;;-1.51;69.66
59315;BME280;46521;50.160;20.802;2023-02-11T05:38:44;101007.53;;;-1.40;69.36
59315;BME280;46521;50.160;20.802;2023-02-11T05:48:45;100998.84;;;-1.39;69.01
59315;BME280;46521;50.160;20.802;2023-02-11T05:58:47;100902.53;;;-1.53;69.35
59315;BME280;46521;50.160;20.802;2023-02-11T06:08:48;100819.01;;;-1.63;69.29
59315;BME280;46521;50.160;20.802;2023-02-11T06:18:50;100888.16;;;-1.62;69.31
59315;BME280;46521;50.160;20.802;2023-02-11T06:28:51;100883.33;;;-1.49;69.15
59315;BME280;46521;50.160;20.802;2023-02-11T06:38:53;100897.39;;;-1.33;69.28
59315;BME280;46521;50.160;20.802;2023-02-11T06:48:55;100892.55;;;-1.20;69.10
59315;BME280;46521;50.160;20.802;2023-02-11T06:58:56;100876.66;;;-1.12;68.88
59315;BME280;46521;50.160;20.802;2023-02-11T07:08:58;100883.74;;;-1.16;69.05
59315;BME280;46521;50.160;20.802;2023-02-11T07:19:00;100877.81;;;-1.19;69.00
59315;BME280;46521;50.160;20.802;2023-02-11T07:29:02;100860.95;;;-1.09;69.01
59315;BME280;46521;50.160;20.802;2023-02-11T07:39:03;100845.06;;;-0.81;69.21
59315;BME280;46521;50.160;20.802;2023-02-11T07:49:05;100833.20;;;-0.47;68.75
59315;BME280;46521;50.160;20.802;2023-02-11T07:59:06;100826.97;;;-0.05;68.75
59315;BME280;46521;50.160;20.802;2023-02-11T08:09:12;100828.03;;;0.28;68.37
59315;BME280;46521;50.160;20.802;2023-02-11T08:19:15;100823.36;;;0.71;68.03
59315;BME280;46521;50.160;20.802;2023-02-11T08:29:17;100833.90;;;1.20;67.87
59315;BME280;46521;50.160;20.802;2023-02-11T08:39:20;100817.73;;;1.80;67.36
59315;BME280;46521;50.160;20.802;2023-02-11T08:49:22;100822.02;;;2.29;66.54
59315;BME280;46521;50.160;20.802;2023-02-11T08:59:24;100814.56;;;2.84;66.61
59315;BME280;46521;50.160;20.802;2023-02-11T09:09:25;100799.70;;;3.29;66.72
59315;BME280;46521;50.160;20.802;2023-02-11T09:19:27;100783.03;;;3.73;65.23
59315;BME280;46521;50.160;20.802;2023-02-11T09:29:28;100785.03;;;3.97;64.85
59315;BME280;46521;50.160;20.802;2023-02-11T09:39:30;100790.06;;;4.27;63.74
59315;BME280;46521;50.160;20.802;2023-02-11T09:49:52;100793.88;;;3.38;64.05
59315;BME280;46521;50.160;20.802;2023-02-11T09:59:57;100784.84;;;2.70;63.92
59315;BME280;46521;50.160;20.802;2023-02-11T10:10:13;100762.71;;;2.31;64.53
59315;BME280;46521;50.160;20.802;2023-02-11T10:20:37;100742.95;;;2.27;64.73
59315;BME280;46521;50.160;20.802;2023-02-11T10:41:27;100683.45;;;3.06;63.94
59315;BME280;46521;50.160;20.802;2023-02-11T10:51:32;100661.70;;;2.91;63.49
59315;BME280;46521;50.160;20.802;2023-02-11T11:01:59;100614.09;;;3.00;63.83
59315;BME280;46521;50.160;20.802;2023-02-11T11:12:02;100610.05;;;3.51;63.66
59315;BME280;46521;50.160;20.802;2023-02-11T11:22:03;100587.92;;;3.69;63.43
59315;BME280;46521;50.160;20.802;2023-02-11T11:32:12;100580.77;;;4.24;63.57
59315;BME280;46521;50.160;20.802;2023-02-11T11:42:33;100567.38;;;4.55;62.51
59315;BME280;46521;50.160;20.802;2023-02-11T12:33:57;100535.39;;;3.32;63.09
59315;BME280;46521;50.160;20.802;2023-02-11T12:44:01;100533.30;;;3.24;62.95
59315;BME280;46521;50.160;20.802;2023-02-11T13:14:29;100469.10;;;2.93;63.58
59315;BME280;46521;50.160;20.802;2023-02-11T13:34:56;100422.30;;;2.76;63.85
59315;BME280;46521;50.160;20.802;2023-02-11T13:44:59;100455.43;;;2.75;64.40
59315;BME280;46521;50.160;20.802;2023-02-11T13:55:22;100474.73;;;2.73;64.30
59315;BME280;46521;50.160;20.802;2023-02-11T14:05:27;100482.42;;;2.61;65.06
59315;BME280;46521;50.160;20.802;2023-02-11T14:15:47;100504.74;;;2.52;65.21
59315;BME280;46521;50.160;20.802;2023-02-11T14:26:02;100513.59;;;2.50;66.43
59315;BME280;46521;50.160;20.802;2023-02-11T14:46:35;100492.34;;;2.13;69.02
59315;BME280;46521;50.160;20.802;2023-02-11T14:56:37;100500.35;;;1.95;70.12
59315;BME280;46521;50.160;20.802;2023-02-11T15:06:40;100509.67;;;1.85;70.84
59315;BME280;46521;50.160;20.802;2023-02-11T15:16:44;100511.88;;;1.77;71.63
59315;BME280;46521;50.160;20.802;2023-02-11T15:37:23;100514.19;;;1.67;71.97
59315;BME280;46521;50.160;20.802;2023-02-11T15:47:28;100527.76;;;1.58;72.75
59315;BME280;46521;50.160;20.802;2023-02-11T15:57:29;100522.06;;;1.51;73.15
59315;BME280;46521;50.160;20.802;2023-02-11T16:17:45;100537.14;;;1.46;73.89
59315;BME280;46521;50.160;20.802;2023-02-11T16:27:48;100561.52;;;1.45;74.10
59315;BME280;46521;50.160;20.802;2023-02-11T16:37:51;100564.13;;;1.45;74.61
59315;BME280;46521;50.160;20.802;2023-02-11T16:47:54;100580.77;;;1.42;74.69
59315;BME280;46521;50.160;20.802;2023-02-11T16:57:56;100572.20;;;1.40;75.35
59315;BME280;46521;50.160;20.802;2023-02-11T17:07:57;100576.59;;;1.40;75.07
59315;BME280;46521;50.160;20.802;2023-02-11T17:18:01;100578.42;;;1.38;75.52
59315;BME280;46521;50.160;20.802;2023-02-11T17:28:04;100581.97;;;1.37;76.03
59315;BME280;46521;50.160;20.802;2023-02-11T17:38:05;100576.93;;;1.34;75.86
59315;BME280;46521;50.160;20.802;2023-02-11T17:48:07;100600.47;;;1.32;76.58
59315;BME280;46521;50.160;20.802;2023-02-11T17:58:08;100600.89;;;1.24;76.88
59315;BME280;46521;50.160;20.802;2023-02-11T18:08:10;100592.33;;;1.22;76.89
59315;BME280;46521;50.160;20.802;2023-02-11T18:18:11;100595.19;;;1.18;77.23
59315;BME280;46521;50.160;20.802;2023-02-11T18:28:13;100602.31;;;1.14;77.28
59315;BME280;46521;50.160;20.802;2023-02-11T18:38:14;100601.73;;;1.09;78.10
59315;BME280;46521;50.160;20.802;2023-02-11T18:48:18;100608.72;;;1.08;78.15
59315;BME280;46521;50.160;20.802;2023-02-11T18:58:19;100611.41;;;1.07;78.14
59315;BME280;46521;50.160;20.802;2023-02-11T19:08:21;100626.17;;;1.06;78.68
59315;BME280;46521;50.160;20.802;2023-02-11T19:18:22;100626.26;;;1.05;79.04
59315;BME280;46521;50.160;20.802;2023-02-11T19:28:25;100625.34;;;1.06;79.06
59315;BME280;46521;50.160;20.802;2023-02-11T19:38:26;100638.45;;;1.04;78.66
59315;BME280;46521;50.160;20.802;2023-02-11T19:48:28;100640.98;;;1.06;79.47
59315;BME280;46521;50.160;20.802;2023-02-11T19:58:29;100638.13;;;1.11;79.39
59315;BME280;46521;50.160;20.802;2023-02-11T20:08:31;100659.88;;;1.10;79.45
59315;BME280;46521;50.160;20.802;2023-02-11T20:18:33;100654.59;;;1.11;79.54
59315;BME280;46521;50.160;20.802;2023-02-11T20:28:35;100664.02;;;1.14;79.32
59315;BME280;46521;50.160;20.802;2023-02-11T20:38:37;100670.92;;;1.15;79.82
59315;BME280;46521;50.160;20.802;2023-02-11T20:48:39;100668.40;;;1.13;79.73
59315;BME280;46521;50.160;20.802;2023-02-11T20:58:41;100671.59;;;1.18;79.96
59315;BME280;46521;50.160;20.802;2023-02-11T21:08:43;100680.85;;;1.24;80.07
59315;BME280;46521;50.160;20.802;2023-02-11T21:18:46;100688.42;;;1.29;80.19
59315;BME280;46521;50.160;20.802;2023-02-11T21:28:48;100700.34;;;1.33;80.30
59315;BME280;46521;50.160;20.802;2023-02-11T21:38:50;100718.42;;;1.36;80.08
59315;BME280;46521;50.160;20.802;2023-02-11T21:48:52;100718.34;;;1.37;80.60
59315;BME280;46521;50.160;20.802;2023-02-11T21:58:56;100729.59;;;1.38;80.88
59315;BME280;46521;50.160;20.802;2023-02-11T22:09:03;100738.20;;;1.40;80.70
59315;BME280;46521;50.160;20.802;2023-02-11T22:19:05;100743.41;;;1.40;80.89
59315;BME280;46521;50.160;20.802;2023-02-11T22:29:07;100755.66;;;1.38;80.83
59315;BME280;46521;50.160;20.802;2023-02-11T22:39:14;100769.64;;;1.37;81.11
59315;BME280;46521;50.160;20.802;2023-02-11T22:49:17;100771.55;;;1.33;80.92
59315;BME280;46521;50.160;20.802;2023-02-11T22:59:20;100769.97;;;1.31;80.99
59315;BME280;46521;50.160;20.802;2023-02-11T23:09:21;100789.28;;;1.26;81.31
59315;BME280;46521;50.160;20.802;2023-02-11T23:19:23;100777.27;;;1.24;81.13
59315;BME280;46521;50.160;20.802;2023-02-11T23:29:24;100773.80;;;1.23;81.52
59315;BME280;46521;50.160;20.802;2023-02-11T23:39:25;100790.81;;;1.31;81.46
